Time;durP1;ratioP1;P1;durP2;ratioP2;P2;SDS_P1;SDS_P2;PMS_P1;PMS_P2;Temp;Humidity;BMP_temperature;BMP_pressure;BME280_temperature;BME280_humidity;BME280_pressure;Samples;Min_cycle;Max_cycle;Signal;HPM_P1;HPM_P2
2021/01/07 00:02:09;;;;;;;25.23;14.27;;;0.80;83.80;;;-1.25;84.58;95587.44;4974585;28;20193;-66
2021/01/07 00:04:34;;;;;;;29.38;15.68;;;0.90;83.70;;;-1.25;84.86;95595.19;5006300;28;20105;-66
2021/01/07 00:07:00;;;;;;;26.70;14.60;;;0.90;83.70;;;-1.30;84.55;95587.03;5007286;28;20060;-66
2021/01/07 00:09:26;;;;;;;29.48;15.13;;;0.80;83.80;;;-1.31;84.52;95576.84;4991259;28;20129;-67
2021/01/07 00:11:52;;;;;;;26.13;14.63;;;0.80;83.90;;;-1.25;84.66;95592.59;4970227;28;20128;-67
2021/01/07 00:14:18;;;;;;;26.23;14.65;;;0.80;83.90;;;-1.24;84.85;95589.06;4987103;28;20117;-66
2021/01/07 00:16:43;;;;;;;27.80;15.27;;;0.80;84.10;;;-1.25;84.72;95595.19;5007300;28;20026;-66
2021/01/07 00:19:09;;;;;;;27.33;14.77;;;0.80;84.10;;;-1.25;84.77;95602.94;4990758;28;20034;-66
2021/01/07 00:21:35;;;;;;;28.73;15.30;;;0.70;84.20;;;-1.28;84.78;95603.19;5006565;28;20125;-66
2021/01/07 00:24:01;;;;;;;26.80;14.77;;;0.70;84.20;;;-1.33;84.97;95592.44;4990316;28;20038;-65
2021/01/07 00:26:26;;;;;;;26.02;14.85;;;0.70;84.20;;;-1.30;84.86;95601.69;4989838;28;20056;-66
2021/01/07 00:28:52;;;;;;;27.42;14.52;;;0.80;84.00;;;-1.27;84.80;95609.97;4990030;28;20065;-66
2021/01/07 00:31:18;;;;;;;27.23;14.70;;;0.70;84.20;;;-1.34;85.07;95601.13;4991018;28;20048;-66
2021/01/07 00:33:44;;;;;;;26.55;14.48;;;0.70;84.20;;;-1.28;84.95;95608.34;4990291;28;20042;-65
2021/01/07 00:36:10;;;;;;;27.10;14.43;;;0.70;84.40;;;-1.27;84.87;95612.56;5007584;28;20041;-65
2021/01/07 00:38:36;;;;;;;27.85;15.30;;;0.80;84.30;;;-1.28;84.96;95608.34;4971292;28;20109;-65
2021/01/07 00:41:02;;;;;;;28.45;14.73;;;0.70;84.40;;;-1.28;85.05;95616.09;5002523;28;20058;-66
2021/01/07 00:43:27;;;;;;;24.30;14.68;;;0.80;84.20;;;-1.27;85.03;95615.16;4975040;28;20502;-66
2021/01/07 00:45:53;;;;;;;26.83;15.02;;;0.70;84.40;;;-1.26;85.17;95606.47;4990013;28;20084;-66
2021/01/07 00:48:19;;;;;;;28.67;15.10;;;0.80;84.30;;;-1.26;85.17;95611.63;4974707;28;20728;-66
2021/01/07 00:50:46;;;;;;;25.63;14.82;;;0.80;84.30;;;-1.29;84.88;95595.59;5006622;28;20112;-66
2021/01/07 00:53:12;;;;;;;26.33;14.10;;;0.90;84.10;;;-1.20;85.04;95609.47;4974824;28;20113;-66
2021/01/07 00:55:38;;;;;;;23.42;13.48;;;1.00;84.10;;;-1.20;84.95;95609.47;4986572;28;20251;-66
2021/01/07 00:58:07;;;;;;;25.00;13.93;;;0.90;84.00;;;-1.25;85.21;95602.94;4999587;28;20125;-66
2021/01/07 01:00:33;;;;;;;26.95;14.15;;;0.90;84.00;;;-1.18;85.20;95608.38;4989397;28;20454;-66
2021/01/07 01:02:59;;;;;;;25.08;14.05;;;0.90;84.10;;;-1.21;84.94;95602.66;5006793;28;20157;-66
2021/01/07 01:05:24;;;;;;;25.50;13.75;;;0.90;84.10;;;-1.20;84.90;95604.31;4989487;28;20092;-67
2021/01/07 01:07:50;;;;;;;25.98;14.07;;;1.00;83.90;;;-1.18;85.26;95607.56;4993628;28;20073;-66
2021/01/07 01:10:16;;;;;;;26.67;14.35;;;1.00;83.90;;;-1.12;85.12;95617.41;4978051;28;20217;-66
2021/01/07 01:12:42;;;;;;;25.25;13.73;;;1.00;84.00;;;-1.10;85.00;95623.25;4977807;28;20122;-66
2021/01/07 01:15:10;;;;;;;25.35;14.10;;;1.00;83.80;;;-1.13;85.10;95616.56;4994428;28;20030;-65
2021/01/07 01:17:39;;;;;;;23.40;13.63;;;0.90;83.90;;;-1.15;85.35;95617.63;4978669;28;20025;-66
2021/01/07 01:20:12;;;;;;;24.40;14.20;;;1.00;84.00;;;-1.09;85.44;95624.88;4993524;28;20064;-66
2021/01/07 01:22:39;;;;;;;25.25;13.70;;;1.00;84.00;;;-1.08;85.10;95634.25;4994168;28;20025;-67
2021/01/07 01:25:09;;;;;;;25.67;14.52;;;1.00;84.00;;;-1.07;85.04;95625.56;5009806;28;20113;-66
2021/01/07 01:27:41;;;;;;;26.07;13.53;;;1.10;84.00;;;-1.07;86.10;95636.69;4974986;28;20037;-67
2021/01/07 01:30:08;;;;;;;24.83;13.85;;;1.00;84.10;;;-1.04;85.16;95639.03;4984606;28;20046;-66
2021/01/07 01:32:35;;;;;;;28.00;14.57;;;1.10;83.70;;;-1.04;85.40;95636.44;4977543;28;20452;-66
2021/01/07 01:35:02;;;;;;;25.67;14.45;;;1.10;83.80;;;-1.04;85.14;95639.03;4993965;28;20069;-66
2021/01/07 01:37:27;;;;;;;26.65;14.52;;;1.00;83.90;;;-1.09;85.05;95632.63;4993778;28;20088;-66
2021/01/07 01:39:53;;;;;;;25.60;13.70;;;1.10;83.90;;;-1.02;85.25;95638.88;4975028;28;20121;-67
2021/01/07 01:42:24;;;;;;;24.58;13.52;;;1.10;83.80;;;-1.02;85.38;95638.88;4991421;28;20060;-66
2021/01/07 01:44:51;;;;;;;24.13;13.52;;;1.10;83.90;;;-1.05;85.06;95639.16;4977869;28;20038;-66
2021/01/07 01:47:17;;;;;;;25.83;15.23;;;1.10;83.80;;;-0.99;85.28;95648.94;4993369;28;20049;-66
2021/01/07 01:49:42;;;;;;;23.73;13.00;;;1.10;83.80;;;-1.05;85.03;95636.56;4993138;28;20079;-66
2021/01/07 01:52:09;;;;;;;24.25;13.52;;;1.10;83.80;;;-1.00;85.11;95647.31;4974403;28;20545;-66
2021/01/07 01:54:36;;;;;;;24.92;14.75;;;1.10;83.60;;;-1.00;85.11;95642.16;4979127;28;20041;-66
2021/01/07 01:57:02;;;;;;;27.42;14.13;;;1.10;83.70;;;-1.01;85.20;95641.34;4989865;28;20077;-65
2021/01/07 01:59:29;;;;;;;23.10;13.13;;;1.10;83.70;;;-0.99;85.15;95642.03;4974180;28;20098;-66
2021/01/07 02:02:03;;;;;;;23.95;13.40;;;1.20;83.80;;;-0.99;85.67;95633.47;4986611;28;20533;-65
2021/01/07 02:04:28;;;;;;;24.60;14.13;;;1.10;83.90;;;-1.00;85.01;95632.66;4991317;28;20443;-66
2021/01/07 02:06:54;;;;;;;24.00;13.77;;;1.20;83.70;;;-0.97;85.34;95628.97;4992527;28;20038;-66
2021/01/07 02:09:20;;;;;;;22.55;13.50;;;1.30;83.70;;;-0.92;85.34;95634.56;5009977;28;20069;-66
2021/01/07 02:11:46;;;;;;;23.10;13.45;;;1.20;83.50;;;-0.94;85.05;95629.53;4972623;28;20062;-66
2021/01/07 02:14:11;;;;;;;23.85;13.27;;;1.20;83.60;;;-0.97;85.16;95621.25;4973940;28;20121;-66
2021/01/07 02:16:37;;;;;;;24.33;14.43;;;1.20;83.80;;;-0.97;85.33;95621.25;4972203;28;20058;-66
2021/01/07 02:19:03;;;;;;;23.08;13.43;;;1.20;83.80;;;-0.92;85.27;95629.41;4973612;28;20089;-66
2021/01/07 02:21:29;;;;;;;22.45;13.85;;;1.20;83.90;;;-0.99;84.98;95623.13;5007807;28;20061;-66
2021/01/07 02:23:55;;;;;;;26.60;14.48;;;1.20;84.00;;;-0.92;85.15;95626.81;4975905;28;20062;-66
2021/01/07 02:26:22;;;;;;;23.35;13.18;;;1.20;83.90;;;-0.96;85.39;95617.72;5009235;28;20034;-66
2021/01/07 02:28:48;;;;;;;23.95;14.38;;;1.30;83.70;;;-0.90;85.04;95627.53;4989182;28;20627;-66
2021/01/07 02:31:17;;;;;;;24.83;13.65;;;1.30;83.60;;;-0.87;85.56;95629.84;4984822;28;20081;-66
2021/01/07 02:33:43;;;;;;;23.67;13.40;;;1.20;83.90;;;-0.86;85.12;95621.16;5008176;28;20129;-67
2021/01/07 02:36:09;;;;;;;27.55;14.38;;;1.30;83.70;;;-0.86;85.41;95623.75;4988218;28;20035;-66
2021/01/07 02:38:35;;;;;;;23.23;13.07;;;1.30;83.60;;;-0.85;85.29;95624.56;4990355;28;20370;-67
2021/01/07 02:41:01;;;;;;;25.23;14.25;;;1.30;83.50;;;-0.85;85.18;95625.38;4992259;28;20053;-66
2021/01/07 02:43:26;;;;;;;24.25;14.20;;;1.30;83.50;;;-0.85;85.13;95625.38;4992624;28;20068;-66
2021/01/07 02:45:52;;;;;;;25.77;14.65;;;1.40;83.30;;;-0.87;85.12;95616.94;4975457;28;20121;-66
2021/01/07 02:48:18;;;;;;;26.33;14.85;;;1.40;83.30;;;-0.84;85.23;95621.84;4987105;28;20031;-66
2021/01/07 02:50:44;;;;;;;26.35;14.50;;;1.40;83.20;;;-0.87;85.37;95616.94;4992018;28;20034;-66
2021/01/07 02:53:10;;;;;;;25.08;14.05;;;1.30;83.40;;;-0.86;85.24;95617.75;4975328;28;20517;-66
2021/01/07 02:55:35;;;;;;;25.13;14.57;;;1.40;83.30;;;-0.87;85.38;95616.94;5008351;28;20057;-67
2021/01/07 02:58:01;;;;;;;27.17;15.18;;;1.20;83.50;;;-0.84;85.15;95627.00;4988464;28;20557;-66
2021/01/07 03:00:27;;;;;;;25.65;14.30;;;1.10;83.80;;;-0.93;85.49;95612.28;4956364;28;20033;-66
2021/01/07 03:02:53;;;;;;;28.70;15.65;;;1.10;84.10;;;-0.95;85.46;95609.84;4966283;28;20454;-66
2021/01/07 03:05:18;;;;;;;29.15;15.10;;;1.10;84.00;;;-0.88;85.41;95614.50;4992180;28;20187;-66
2021/01/07 03:07:44;;;;;;;26.67;15.57;;;1.10;84.20;;;-0.92;85.25;95621.66;4991083;28;20113;-66
2021/01/07 03:10:11;;;;;;;28.63;15.65;;;1.10;84.10;;;-0.90;85.21;95616.41;4989262;28;20113;-66
2021/01/07 03:12:37;;;;;;;38.03;21.27;;;1.10;84.00;;;-0.91;85.06;95612.97;4975178;28;20037;-66
2021/01/07 03:15:04;;;;;;;27.30;15.10;;;1.10;84.00;;;-0.92;85.15;95611.34;4996317;28;20119;-65
2021/01/07 03:17:30;;;;;;;27.35;14.70;;;1.10;84.00;;;-0.91;85.08;95610.38;4988584;28;20150;-65
2021/01/07 03:19:56;;;;;;;24.98;13.20;;;1.20;83.50;;;-0.94;85.02;95595.97;4939596;28;20124;-65
2021/01/07 03:22:21;;;;;;;25.23;14.50;;;1.30;83.30;;;-0.95;85.17;95609.84;4956858;28;20105;-65
2021/01/07 03:24:47;;;;;;;25.60;14.23;;;1.20;83.40;;;-0.89;85.18;95618.03;4972047;28;20137;-65
2021/01/07 03:27:13;;;;;;;26.10;13.52;;;1.20;83.40;;;-0.94;85.30;95608.06;4971869;28;20169;-66
2021/01/07 03:29:39;;;;;;;23.48;13.77;;;1.30;83.00;;;-0.94;85.16;95610.66;4988354;28;20065;-66
2021/01/07 03:32:04;;;;;;;25.92;14.65;;;1.20;83.20;;;-0.89;85.23;95624.00;4952833;28;20352;-65
2021/01/07 03:34:30;;;;;;;35.65;19.27;;;1.20;83.20;;;-0.87;85.03;95616.94;4969084;28;20031;-66
2021/01/07 03:36:56;;;;;;;24.42;14.55;;;1.30;83.20;;;-0.86;85.16;95618.56;4971501;28;20625;-66
2021/01/07 03:39:22;;;;;;;30.00;15.80;;;1.30;82.90;;;-0.88;85.24;95615.31;4988026;28;20062;-66
2021/01/07 03:41:47;;;;;;;33.35;17.80;;;1.20;82.90;;;-0.93;84.87;95607.94;4986823;28;20038;-66
2021/01/07 03:44:13;;;;;;;25.10;13.50;;;1.30;82.90;;;-0.87;85.09;95616.94;5004808;28;20114;-67
2021/01/07 03:46:39;;;;;;;22.75;12.88;;;1.30;82.50;;;-0.87;84.84;95616.13;4987917;28;20049;-68
2021/01/07 03:49:05;;;;;;;21.60;12.98;;;1.20;82.90;;;-0.93;85.01;95602.78;4956260;28;20204;-67
2021/01/07 03:51:31;;;;;;;23.58;12.98;;;1.30;82.70;;;-0.88;84.97;95614.50;4956271;28;20057;-67
2021/01/07 03:53:57;;;;;;;23.30;13.32;;;1.20;82.90;;;-0.86;84.84;95623.75;4987625;28;20046;-67
2021/01/07 03:56:23;;;;;;;22.33;12.88;;;1.30;82.60;;;-0.94;84.65;95626.13;4971107;28;20181;-67
2021/01/07 03:58:48;;;;;;;24.33;13.68;;;1.10;82.80;;;-0.91;84.96;95628.47;4952305;28;20168;-67
2021/01/07 04:01:14;;;;;;;23.95;13.15;;;1.10;83.00;;;-0.90;84.52;95631.88;4976973;28;20066;-67
2021/01/07 04:03:40;;;;;;;22.15;13.75;;;1.20;82.70;;;-0.92;84.78;95630.22;4952510;28;20122;-67
2021/01/07 04:06:06;;;;;;;21.80;12.20;;;1.10;83.00;;;-0.97;84.92;95622.06;4962465;28;20518;-67
2021/01/07 04:08:31;;;;;;;20.58;12.05;;;1.10;82.90;;;-0.93;84.75;95627.78;4953952;28;20157;-68
2021/01/07 04:10:57;;;;;;;20.40;11.57;;;1.20;82.70;;;-0.98;84.66;95633.34;4968329;28;20137;-67
2021/01/07 04:13:23;;;;;;;20.58;12.00;;;1.10;82.70;;;-0.93;84.81;95635.50;4972859;28;20066;-67
2021/01/07 04:15:49;;;;;;;19.67;11.68;;;1.10;82.60;;;-0.92;84.77;95647.47;4951192;28;20129;-69
2021/01/07 04:18:15;;;;;;;21.25;11.73;;;1.10;82.70;;;-0.98;84.83;95624.78;4984203;28;20029;-67
2021/01/07 04:20:40;;;;;;;21.90;11.68;;;1.20;82.70;;;-0.97;84.59;95632.38;4953459;28;20054;-67
2021/01/07 04:23:06;;;;;;;22.55;12.73;;;1.20;82.50;;;-0.90;84.93;95637.03;4939472;28;20069;-67
2021/01/07 04:25:32;;;;;;;22.63;12.25;;;1.20;82.30;;;-0.91;84.65;95641.38;5003905;28;20121;-67
2021/01/07 04:27:58;;;;;;;21.08;12.15;;;1.20;82.40;;;-0.97;84.65;95628.97;4970911;28;20122;-67
2021/01/07 04:30:24;;;;;;;22.52;12.35;;;1.20;82.20;;;-0.99;84.35;95628.31;4955457;28;20031;-68
2021/01/07 04:32:49;;;;;;;20.67;11.98;;;1.10;82.30;;;-1.00;84.48;95624.91;4954178;28;20101;-67
2021/01/07 04:35:15;;;;;;;22.45;12.43;;;1.10;82.40;;;-0.94;84.38;95636.47;4955737;28;20486;-68
2021/01/07 04:37:41;;;;;;;23.17;12.68;;;1.10;82.20;;;-0.95;84.39;95640.00;4954907;28;20160;-68
2021/01/07 04:40:07;;;;;;;20.35;11.43;;;1.10;82.30;;;-0.95;84.63;95642.56;4972846;28;20037;-67
2021/01/07 04:42:33;;;;;;;21.13;12.68;;;1.20;82.20;;;-1.00;84.37;95629.25;4992774;28;20473;-66
2021/01/07 04:44:59;;;;;;;19.02;11.13;;;1.10;81.80;;;-0.99;84.44;95643.78;4990772;28;20129;-67
2021/01/07 04:47:25;;;;;;;22.23;11.85;;;1.10;81.90;;;-0.98;84.06;95645.41;4991229;28;20035;-68
2021/01/07 04:49:51;;;;;;;21.38;12.43;;;1.10;81.80;;;-1.02;84.10;95649.22;4958369;28;20061;-66
2021/01/07 04:52:17;;;;;;;19.45;11.18;;;0.90;82.00;;;-1.02;84.13;95641.47;4943022;28;20038;-67
2021/01/07 04:54:43;;;;;;;19.88;11.43;;;1.00;81.80;;;-1.03;84.04;95647.56;4971865;28;20056;-64
2021/01/07 04:57:09;;;;;;;19.92;11.23;;;1.00;81.70;;;-1.03;84.06;95648.41;4956355;28;20031;-65
2021/01/07 04:59:35;;;;;;;23.42;11.98;;;1.00;82.00;;;-1.03;84.52;95650.97;4975529;28;20132;-65
2021/01/07 05:02:02;;;;;;;21.05;11.55;;;1.00;82.90;;;-1.01;84.10;95646.50;4995726;28;20052;-64
2021/01/07 05:04:28;;;;;;;21.10;12.18;;;1.10;82.00;;;-1.04;84.05;95645.94;4972377;28;20042;-67
2021/01/07 05:06:54;;;;;;;21.70;11.80;;;1.10;81.60;;;-1.03;84.46;95639.84;4964982;28;20065;-65
2021/01/07 05:09:21;;;;;;;19.27;11.20;;;1.10;81.50;;;-0.98;84.04;95646.22;4970194;28;20034;-67
2021/01/07 05:11:47;;;;;;;20.95;11.93;;;1.10;81.50;;;-0.97;84.15;95647.06;4969661;28;20527;-66
2021/01/07 05:14:12;;;;;;;22.88;12.45;;;1.10;81.70;;;-1.01;83.99;95641.34;4979431;28;20133;-66
2021/01/07 05:16:38;;;;;;;20.35;11.85;;;1.10;81.50;;;-1.01;84.18;95635.34;4973254;28;20036;-65
2021/01/07 05:19:06;;;;;;;19.25;10.63;;;1.20;81.30;;;-0.96;83.78;95639.19;4970083;28;20135;-65
2021/01/07 05:21:32;;;;;;;21.98;11.52;;;1.10;81.20;;;-0.96;83.88;95646.91;4990844;28;20030;-66
2021/01/07 05:23:58;;;;;;;20.70;11.75;;;1.10;81.40;;;-0.95;83.65;95645.16;4973988;28;20042;-65
2021/01/07 05:26:25;;;;;;;17.38;10.40;;;1.10;81.50;;;-0.92;83.88;95650.06;4992452;28;20056;-65
2021/01/07 05:28:53;;;;;;;18.35;11.10;;;1.30;81.20;;;-0.92;84.03;95652.63;4972658;28;20453;-66
2021/01/07 05:31:26;;;;;;;20.15;11.82;;;1.20;81.20;;;-0.91;83.77;95649.09;4973574;28;20553;-66
2021/01/07 05:33:52;;;;;;;21.23;10.65;;;1.10;81.20;;;-0.94;83.61;95641.63;4970122;28;20041;-66
2021/01/07 05:36:30;;;;;;;20.05;11.05;;;1.20;81.10;;;-0.88;83.91;95648.88;4961623;28;20092;-65
2021/01/07 05:39:00;;;;;;;20.45;11.70;;;1.20;81.00;;;-0.94;83.54;95636.47;4997276;28;20283;-65
2021/01/07 05:41:26;;;;;;;20.92;11.77;;;1.20;81.00;;;-0.94;83.59;95633.88;4974570;28;20037;-66
2021/01/07 05:44:05;;;;;;;20.17;11.40;;;1.20;81.20;;;-0.87;83.88;95641.94;4973052;28;20461;-66
2021/01/07 05:46:31;;;;;;;20.10;11.35;;;1.20;81.20;;;-0.88;83.87;95641.13;4990330;28;20022;-66
2021/01/07 05:48:57;;;;;;;20.67;11.85;;;1.30;81.00;;;-0.93;83.56;95641.50;4970458;28;20383;-65
2021/01/07 05:51:26;;;;;;;21.77;12.30;;;1.30;81.00;;;-0.87;83.70;95647.94;4957205;28;20117;-66
2021/01/07 05:53:53;;;;;;;21.00;12.00;;;1.20;81.00;;;-0.87;83.65;95647.09;4972612;28;20046;-65
2021/01/07 05:56:22;;;;;;;20.83;11.57;;;1.20;80.90;;;-0.87;83.67;95647.94;4990244;28;20036;-65
2021/01/07 05:58:49;;;;;;;21.65;12.13;;;1.20;81.20;;;-0.85;83.59;95650.38;4972532;28;20042;-63
2021/01/07 06:01:19;;;;;;;20.08;11.65;;;1.30;81.30;;;-0.91;83.55;95636.19;4974175;28;20030;-64
2021/01/07 06:03:49;;;;;;;20.40;11.93;;;1.20;81.20;;;-0.86;83.59;95649.56;4972545;28;20039;-64
2021/01/07 06:06:16;;;;;;;28.88;15.73;;;1.20;81.30;;;-0.86;83.51;95644.41;4957753;28;20057;-65
2021/01/07 06:08:52;;;;;;;25.40;12.68;;;1.20;80.90;;;-0.87;83.75;95647.94;4957183;28;20038;-67
2021/01/07 06:11:19;;;;;;;20.40;11.98;;;1.20;81.00;;;-0.87;83.71;95653.09;4973423;28;20149;-68
2021/01/07 06:13:47;;;;;;;20.90;11.93;;;1.20;81.20;;;-0.89;83.55;95655.00;4969526;28;20050;-66
2021/01/07 06:16:14;;;;;;;24.67;12.85;;;1.10;81.20;;;-0.89;83.73;95652.41;4954643;28;20460;-67
2021/01/07 06:18:40;;;;;;;21.42;11.90;;;1.20;81.20;;;-0.94;83.70;95641.63;4984792;28;20490;-63
2021/01/07 06:21:08;;;;;;;21.88;11.93;;;1.20;81.30;;;-0.90;83.39;95661.09;4971220;28;20039;-63
2021/01/07 06:23:45;;;;;;;21.40;12.63;;;1.10;81.20;;;-0.90;83.77;95663.69;4972843;28;20106;-64
2021/01/07 06:26:27;;;;;;;22.35;12.18;;;1.20;81.40;;;-0.91;83.67;95667.19;5025345;28;20096;-66
2021/01/07 06:28:59;;;;;;;27.27;15.20;;;1.10;81.20;;;-0.89;83.98;95662.72;5008777;28;20088;-66
2021/01/07 06:31:36;;;;;;;23.00;12.90;;;1.10;81.30;;;-0.88;83.95;95660.97;4976564;28;20538;-68
2021/01/07 06:34:02;;;;;;;22.48;12.15;;;1.30;81.20;;;-0.87;83.60;95663.41;4969880;28;20061;-72
2021/01/07 06:36:42;;;;;;;22.17;11.57;;;1.20;81.20;;;-0.89;83.68;95660.16;4989146;28;20133;-70
2021/01/07 06:39:08;;;;;;;21.38;11.73;;;1.10;81.10;;;-0.88;83.61;95661.78;4956697;28;20042;-67
2021/01/07 06:41:34;;;;;;;21.80;12.00;;;1.20;81.00;;;-0.87;83.92;95660.84;4970534;28;20509;-69
2021/01/07 06:44:01;;;;;;;23.13;12.73;;;1.30;80.70;;;-0.86;83.10;95665.06;4986108;28;20084;-70
2021/01/07 06:46:43;;;;;;;23.08;12.70;;;1.30;80.80;;;-0.87;83.57;95662.59;4987296;28;20073;-70
2021/01/07 06:49:27;;;;;;;23.05;12.25;;;1.40;80.60;;;-0.88;83.50;95669.53;4984927;28;20520;-71
2021/01/07 06:52:05;;;;;;;21.63;11.70;;;1.30;80.80;;;-0.88;83.61;95666.94;4988473;28;20034;-71
2021/01/07 06:54:36;;;;;;;25.40;12.88;;;1.30;80.90;;;-0.90;83.57;95668.03;4987595;28;20034;-62
2021/01/07 06:57:03;;;;;;;21.90;12.65;;;1.20;81.00;;;-0.90;83.56;95668.03;4951769;28;20049;-70
2021/01/07 06:59:29;;;;;;;24.33;12.75;;;1.20;80.80;;;-0.96;83.61;95656.44;4987114;28;20593;-69
2021/01/07 07:01:56;;;;;;;20.58;12.40;;;1.30;80.60;;;-0.89;83.42;95670.47;4949623;28;20059;-70
2021/01/07 07:04:30;;;;;;;21.50;12.73;;;1.30;80.60;;;-0.90;83.34;95663.69;4987695;28;20038;-69
2021/01/07 07:07:01;;;;;;;22.42;12.60;;;1.20;80.60;;;-0.91;83.53;95664.59;4971835;28;20042;-69
2021/01/07 07:09:35;;;;;;;24.75;12.45;;;1.30;80.60;;;-0.87;83.66;95670.34;4971779;28;20491;-69
2021/01/07 07:12:01;;;;;;;25.63;14.15;;;1.40;80.50;;;-0.89;83.35;95670.47;4975100;28;20038;-70
2021/01/07 07:14:27;;;;;;;27.70;13.25;;;1.40;80.50;;;-0.87;83.43;95678.09;4988791;28;20113;-66
2021/01/07 07:16:53;;;;;;;23.33;13.38;;;1.30;80.80;;;-0.94;83.20;95673.41;4971026;28;20038;-70
2021/01/07 07:19:28;;;;;;;23.20;13.18;;;1.30;80.60;;;-0.92;83.54;95681.03;4956104;28;20042;-67
2021/01/07 07:22:00;;;;;;;24.20;12.55;;;1.30;80.50;;;-0.86;83.59;95688.28;4970996;28;20034;-73
2021/01/07 07:24:34;;;;;;;24.73;12.90;;;1.30;80.50;;;-0.92;83.61;95676.69;4955674;28;20045;-72
2021/01/07 07:27:10;;;;;;;26.33;13.57;;;1.40;80.40;;;-0.85;83.60;95692.50;4940942;28;20065;-72
2021/01/07 07:29:38;;;;;;;27.30;14.38;;;1.40;80.50;;;-0.84;83.41;95688.97;4954369;28;20031;-72
2021/01/07 07:32:26;;;;;;;26.70;14.88;;;1.40;80.80;;;-0.88;83.50;95682.44;4986478;28;20128;-72
2021/01/07 07:34:53;;;;;;;26.45;13.93;;;1.30;80.90;;;-0.88;83.23;95682.44;4986463;28;20403;-72
2021/01/07 07:37:23;;;;;;;28.30;14.60;;;1.30;81.00;;;-0.88;83.83;95697.09;4954217;28;20034;-71
2021/01/07 07:39:50;;;;;;;30.30;15.85;;;1.30;80.90;;;-0.86;83.44;95698.63;4960135;28;20033;-65
2021/01/07 07:42:16;;;;;;;27.92;14.50;;;1.20;81.10;;;-0.87;83.36;95699.56;4967635;28;20092;-65
2021/01/07 07:44:41;;;;;;;31.25;14.75;;;1.20;81.10;;;-0.87;83.31;95698.75;4971978;28;20030;-68
2021/01/07 07:47:07;;;;;;;28.50;15.60;;;1.20;81.20;;;-0.89;83.41;95690.31;4970823;28;20044;-68
2021/01/07 07:49:33;;;;;;;27.00;14.55;;;1.40;80.90;;;-0.81;83.38;95696.47;4971807;28;20133;-68
2021/01/07 07:51:58;;;;;;;27.65;14.77;;;1.50;80.70;;;-0.79;83.31;95697.16;4987317;28;20188;-72
2021/01/07 07:54:24;;;;;;;29.70;14.68;;;1.40;80.60;;;-0.81;83.40;95698.22;4989207;28;20045;-73
2021/01/07 07:57:00;;;;;;;27.85;14.88;;;1.50;80.30;;;-0.74;83.41;95704.50;4979205;28;20053;-68
2021/01/07 07:59:26;;;;;;;25.77;14.52;;;1.50;80.10;;;-0.77;83.47;95692.66;5003383;28;20040;-68
2021/01/07 08:01:53;;;;;;;32.25;15.45;;;1.50;80.50;;;-0.71;83.15;95705.06;4970880;28;20041;-67
2021/01/07 08:04:21;;;;;;;28.15;15.10;;;1.60;80.10;;;-0.67;83.31;95706.44;4968112;28;20042;-71
2021/01/07 08:06:47;;;;;;;26.48;14.50;;;1.60;79.60;;;-0.69;83.39;95698.00;4979085;28;20057;-69
2021/01/07 08:09:15;;;;;;;28.77;15.27;;;1.70;79.80;;;-0.60;83.14;95698.19;4970878;28;20116;-71
2021/01/07 08:11:45;;;;;;;24.42;14.05;;;1.70;79.40;;;-0.56;83.30;95704.72;4988510;28;20053;-71
2021/01/07 08:14:16;;;;;;;27.58;15.65;;;1.80;79.50;;;-0.52;83.22;95708.66;4987034;28;20058;-66
2021/01/07 08:16:42;;;;;;;;;;;1.80;79.10;;;-0.52;83.00;95709.47;4956770;28;20034;-71
2021/01/07 08:19:16;;;;;;;40.70;19.73;;;1.80;79.00;;;-0.50;82.96;95704.19;4986758;28;19987;-68
2021/01/07 08:21:47;;;;;;;29.92;15.75;;;1.90;78.90;;;-0.42;82.74;95712.94;4985697;28;20565;-69
2021/01/07 08:24:14;;;;;;;29.30;14.65;;;2.00;78.60;;;-0.42;82.67;95714.69;4968786;28;20043;-65
2021/01/07 08:26:40;;;;;;;26.80;15.30;;;1.90;78.90;;;-0.41;82.76;95701.66;4985900;28;20050;-67
2021/01/07 08:29:09;;;;;;;30.67;16.42;;;2.10;78.70;;;-0.36;82.61;95712.41;4954569;28;20022;-66
2021/01/07 08:31:35;;;;;;;29.80;15.70;;;2.10;78.30;;;-0.25;83.03;95715.81;4955358;28;20042;-70
2021/01/07 08:34:02;;;;;;;30.40;15.82;;;2.20;78.20;;;-0.21;83.00;95720.63;4969849;28;20354;-65
2021/01/07 08:36:29;;;;;;;30.23;15.65;;;2.20;78.00;;;-0.19;82.80;95721.28;4954589;28;20041;-70
2021/01/07 08:38:55;;;;;;;30.23;15.65;;;2.10;77.70;;;-0.23;82.94;95714.72;4972725;28;20053;-69
2021/01/07 08:41:21;;;;;;;30.95;15.55;;;2.10;78.10;;;-0.16;82.52;95726.19;4973036;28;20022;-69
2021/01/07 08:43:47;;;;;;;26.80;15.00;;;2.20;78.00;;;-0.13;82.32;95715.59;4987880;28;20113;-69
2021/01/07 08:46:17;;;;;;;34.45;16.70;;;2.20;77.70;;;-0.14;82.36;95719.13;4967892;28;20027;-66
2021/01/07 08:48:43;;;;;;;28.65;15.38;;;2.10;78.10;;;-0.12;82.56;95719.00;4976966;28;20030;-67
2021/01/07 08:51:19;;;;;;;37.75;19.63;;;2.10;78.10;;;-0.10;82.28;95723.06;4969719;28;20347;-67
2021/01/07 08:53:55;;;;;;;40.10;20.52;;;2.30;78.40;;;-0.04;81.96;95719.13;4970680;28;20046;-67
2021/01/07 08:56:34;;;;;;;32.92;16.98;;;2.20;78.30;;;-0.03;81.51;95724.16;4977830;28;20038;-61
2021/01/07 08:59:33;;;;;;;31.90;16.30;;;2.20;77.70;;;-0.03;81.64;95726.75;4986321;28;20034;-61
2021/01/07 09:02:06;;;;;;;32.53;15.63;;;2.10;77.50;;;-0.03;81.92;95724.16;4972626;28;20042;-68
2021/01/07 09:04:45;;;;;;;29.23;15.93;;;2.10;77.90;;;-0.02;81.97;95718.03;4988335;28;20054;-66
2021/01/07 09:07:14;;;;;;;32.22;16.58;;;2.20;77.80;;;0.02;81.52;95722.97;4986647;28;20035;-68
2021/01/07 09:09:54;;;;;;;28.48;15.05;;;2.20;77.50;;;0.08;81.62;95720.66;4987340;28;20034;-64
2021/01/07 09:12:30;;;;;;;28.20;15.13;;;2.40;77.60;;;0.11;81.58;95720.41;4982769;28;20425;-67
2021/01/07 09:15:09;;;;;;;33.35;16.88;;;2.40;77.40;;;0.08;81.48;95706.91;4987111;28;20537;-68
2021/01/07 09:18:00;;;;;;;36.72;18.38;;;2.40;76.90;;;0.15;81.23;95714.00;4970979;28;20398;-69
2021/01/07 09:20:31;;;;;;;36.30;18.13;;;2.60;77.20;;;0.22;81.84;95709.09;4970088;28;20026;-66
2021/01/07 09:23:08;;;;;;;33.20;17.10;;;2.60;76.60;;;0.23;81.75;95715.94;4970782;28;20278;-71
2021/01/07 09:25:34;;;;;;;35.15;17.00;;;2.60;76.60;;;0.28;81.84;95713.75;4952387;28;20047;-64
2021/01/07 09:28:00;;;;;;;32.38;16.77;;;2.70;76.50;;;0.27;82.00;95706.94;4984671;28;20116;-69
2021/01/07 09:30:26;;;;;;;33.08;17.45;;;2.60;76.30;;;0.27;81.55;95717.28;5006275;28;20530;-68
2021/01/07 09:32:52;;;;;;;34.03;17.45;;;2.50;76.60;;;0.29;81.50;95710.22;4954716;28;20038;-67
2021/01/07 09:35:18;;;;;;;33.42;16.80;;;2.60;76.70;;;0.36;81.41;95716.47;4986042;28;20106;-65
2021/01/07 09:37:43;;;;;;;35.20;18.33;;;2.70;76.20;;;0.41;81.42;95716.88;4954183;28;20077;-65
2021/01/07 09:40:10;;;;;;;35.63;17.65;;;2.80;76.70;;;0.48;81.44;95714.56;5018713;28;20038;-69
2021/01/07 09:42:35;;;;;;;35.13;17.75;;;2.90;76.50;;;0.49;82.01;95714.44;4997088;28;20030;-67
2021/01/07 09:45:05;;;;;;;35.03;16.35;;;2.90;75.70;;;0.58;81.20;95712.78;5009442;28;20618;-66
2021/01/07 09:47:30;;;;;;;33.45;17.73;;;3.00;75.80;;;0.65;81.70;95715.63;5008528;28;20494;-67
2021/01/07 09:49:58;;;;;;;39.42;20.00;;;3.10;75.50;;;0.74;81.17;95709.66;5007612;28;20061;-67
2021/01/07 09:52:24;;;;;;;41.15;21.45;;;3.20;75.80;;;0.81;81.49;95710.72;4990437;28;20210;-68
2021/01/07 09:54:50;;;;;;;38.60;19.98;;;3.40;76.10;;;0.87;81.56;95692.03;4982405;28;20042;-67
2021/01/07 09:57:16;;;;;;;33.03;17.85;;;3.50;74.90;;;0.89;81.37;95692.72;4993215;28;20038;-66
2021/01/07 09:59:42;;;;;;;34.70;18.15;;;3.30;74.00;;;0.92;81.34;95702.81;4976428;28;20456;-67
2021/01/07 10:02:09;;;;;;;32.72;17.63;;;3.40;74.50;;;1.01;81.05;95690.78;4992404;28;20093;-67
2021/01/07 10:04:35;;;;;;;37.03;18.08;;;3.50;74.00;;;1.08;80.85;95692.66;4990755;28;20077;-72
2021/01/07 10:07:02;;;;;;;36.78;18.33;;;3.60;73.00;;;1.13;80.14;95694.84;4992961;28;20026;-65
2021/01/07 10:09:28;;;;;;;35.33;17.70;;;3.60;73.10;;;1.22;80.49;95694.00;5008573;28;20524;-65
2021/01/07 10:11:56;;;;;;;35.60;17.75;;;3.80;72.80;;;1.33;80.50;95690.41;4976098;28;20037;-72
2021/01/07 10:14:22;;;;;;;33.50;17.45;;;4.00;72.10;;;1.38;80.23;95698.59;5010527;28;20032;-71
2021/01/07 10:16:51;;;;;;;32.58;17.38;;;3.90;71.70;;;1.41;79.98;95688.75;4991982;28;20409;-65